Terminal Aerodrome Forecast
Issued by NWS Portland, OR

Home | Current Version | Previous Version | Text Only | Print | Product List | Glossary On
Versions: 1 2 3 4 5 6 7 8 9 10 11 12 13 14 15 16 17 18 19 20 21 22 23 24 25 26 27 28 29 30 31 32 33 34 35 36 37 38 39 40 41 42 43 44
000
FTUS46 KPQR 242330
TAFHIO
TAF
KHIO 242330Z 2500/2524 26006KT P6SM -SHRA SCT035 BKN050
     FM250300 VRB03KT P6SM VCSH BKN025
      TEMPO 2512/2516 5SM MIFG SCT001
     FM251800 VRB04KT P6SM SCT035 BKN050=

USA.gov is the U.S. government's official web portal to all federal, state and local government web resources and services.